Monday, June 18, 2018, 8:46 PM EDT
Back to Local

KMHT, Manchester Airport

Location: Manchester, NH, United States Lat: 42.933
Local Time: 8:46 PM EDT ( 0:46 GMT) Lon: -71.433
Time Zone: US/Eastern Elev: 232 ft

Show me the last for .
Show Decoded

2018-06-18 19:53 METAR KMHT 182353Z 18005KT 10SM SCT075 BKN110 OVC150 24/22 A2969 RMK AO2 SLP065
                 LTG DSNT SE SW 60016 T02390217 10344 20233 50004 $ =
2018-06-18 18:53 METAR KMHT 182253Z 21008KT 10SM FEW035 OVC130 23/21 A2972 RMK AO2 PK WND
                 26042/2205 LTG DSNT ALQDS RAB07E53 TSB2155 SLP073 FRQ LTG DSNT NE SE-SW MOV E
                 P0016 T02330211 $ =
2018-06-18 18:39 METAR KMHT 182239Z 21005KT 10SM -RA SCT035 OVC110 23/21 A2972 RMK AO2 PK WND
                 26042/2205 LTG DSNT ALQDS RAB07 TSB2155 FRQ LTG DSNT SE-SW MOV E P0016 T02330211
                 $ =
2018-06-18 18:15 METAR KMHT 182215Z 24008G36KT 4SM R35/4500VP6000FT +TSRA FEW020CB BKN040 BKN060
                 OVC200 24/21 A2972 RMK AO2 PK WND 26042/2205 LTG DSNT ALQDS RAB07 TSB2155 FRQ
                 LTGICCG OHD TS OHD MOV E P0014 T02390206 $ =
2018-06-18 18:08 METAR KMHT 182208Z 25018G42KT 1 1/4SM R35/4500VP6000FT TSRA FEW020CB BKN040
                 BKN060 OVC130 27/21 A2975 RMK AO2 PK WND 26042/2205 LTG DSNT ALQDS RAB07 TSB2155
                 PRESRR FRQ LTGICCG OHD TS OHD MOV E P0008 T02720211 =
2018-06-18 17:55 METAR KMHT 182155Z 21013G21KT 10SM TS FEW060CB SCT085 OVC200 32/21 A2967 RMK AO2
                 LTG DSNT ALQDS TSB55 OCNL LTGIC VC SW-NW TS VC SW-NW MOV E T03220211 =
2018-06-18 17:53 METAR KMHT 182153Z 22014G21KT 10SM FEW060 FEW085 OVC200 33/21 A2967 RMK AO2 LTG
                 DSNT ALQDS SLP053 T03280211 =
2018-06-18 16:53 METAR KMHT 182053Z 21009G16KT 10SM FEW050 SCT065 SCT200 OVC250 33/21 A2968 RMK
                 AO2 LTG DSNT N SLP060 60000 T03330211 58030 =
2018-06-18 15:53 METAR KMHT 181953Z 20013G20KT 10SM FEW055 FEW090 SCT220 BKN250 34/21 A2971 RMK
                 AO2 SLP069 T03390206 =
2018-06-18 14:53 METAR KMHT 181853Z 22012G17KT 10SM FEW050 SCT200 BKN250 34/20 A2975 RMK AO2
                 SLP082 T03390200 =
2018-06-18 13:53 METAR KMHT 181753Z 21009G17KT 10SM SCT150 OVC250 33/19 A2977 RMK AO2 SLP090
                 T03280194 10328 20228 58027 $ =
2018-06-18 12:53 METAR KMHT 181653Z 22011KT 10SM FEW150 BKN220 33/19 A2981 RMK AO2 SLP101
                 T03280194 $ =
2018-06-18 11:53 METAR KMHT 181553Z 20011KT 10SM BKN220 27/19 A2984 RMK AO2 SLP112 T02670189 =
2018-06-18 10:53 METAR KMHT 181453Z 20012KT 10SM SCT180 BKN250 29/18 A2985 RMK AO2 SLP118
                 T02890178 56020 =
2018-06-18 09:53 METAR KMHT 181353Z 20009KT 10SM BKN180 BKN250 27/17 A2987 RMK AO2 SLP125
                 T02720172 =
2018-06-18 08:53 METAR KMHT 181253Z 20008KT 10SM BKN180 BKN250 26/16 A2989 RMK AO2 SLP131
                 T02560161 =
2018-06-18 07:53 METAR KMHT 181153Z 21007KT 10SM BKN180 BKN250 23/14 A2991 RMK AO2 SLP139
                 T02280144 10228 20178 56009 =
2018-06-18 06:53 METAR KMHT 181053Z 19007KT 10SM SCT180 BKN240 22/13 A2992 RMK AO2 SLP141
                 T02170133 $ =
2018-06-18 05:53 METAR KMHT 180953Z 19007KT 10SM SCT180 BKN240 21/12 A2993 RMK AO2 SLP144
                 T02060122 $ =
2018-06-18 04:53 METAR KMHT 180853Z 19004KT 10SM BKN180 21/12 A2994 RMK AO2 SLP147 T02060122
                 56023 $ =
2018-06-18 03:53 METAR KMHT 180753Z 20004KT 10SM BKN250 21/13 A2997 RMK AO2 SLP157 T02060128 $ =
2018-06-18 02:53 METAR KMHT 180653Z 20004KT 10SM BKN250 18/13 A2997 RMK AO2 SLP159 T01830133 $ =
2018-06-18 01:53 METAR KMHT 180553Z 00000KT 10SM BKN250 19/13 A3001 RMK AO2 SLP171 T01890128
                 10256 20189 53000 $ =
2018-06-18 00:53 METAR KMHT 180453Z 00000KT 10SM BKN250 20/13 A3001 RMK AO2 SLP172 T02000128
                 403220139 $ =
2018-06-17 23:53 METAR KMHT 180353Z 15004KT 10SM BKN250 21/13 A3000 RMK AO2 SLP168 T02060128 $ =
2018-06-17 22:53 METAR KMHT 180253Z 15005KT 10SM SCT250 21/13 A3001 RMK AO2 SLP171 T02110128
                 56010 $ =
2018-06-17 21:53 METAR KMHT 180153Z 15006KT 10SM FEW200 SCT250 22/14 A3002 RMK AO2 SLP174
                 T02170139 $ =
2018-06-17 20:53 METAR KMHT 180053Z 11004KT 10SM BKN200 BKN250 24/12 A3002 RMK AO2 SLP176
                 T02390122 $ =

Support USWX by starting your Amazon purchase here.